createdAt,value
2018-10-11T00:00:12.647Z,28.60
2018-10-11T00:02:41.623Z,27.60
2018-10-11T00:05:10.227Z,28.40
2018-10-11T00:07:38.712Z,34.40
2018-10-11T00:10:07.684Z,28.00
2018-10-11T00:12:36.179Z,28.40
2018-10-11T00:15:04.567Z,30.53
2018-10-11T00:17:33.868Z,28.60
2018-10-11T00:20:02.589Z,30.80
2018-10-11T00:22:31.011Z,33.77
2018-10-11T00:24:59.640Z,28.90
2018-10-11T00:27:28.344Z,29.60
2018-10-11T00:29:57.868Z,29.53
2018-10-11T00:32:26.578Z,27.33
2018-10-11T00:34:55.178Z,29.63
2018-10-11T00:37:23.654Z,31.87
2018-10-11T00:39:52.275Z,30.50
2018-10-11T00:42:21.001Z,28.33
2018-10-11T00:44:49.416Z,30.37
2018-10-11T00:47:18.044Z,28.90
2018-10-11T00:49:46.861Z,29.43
2018-10-11T00:52:15.418Z,31.97
2018-10-11T00:54:44.440Z,30.40
2018-10-11T00:57:14.352Z,31.70
2018-10-11T00:59:42.737Z,31.50
2018-10-11T01:02:11.347Z,32.77
2018-10-11T01:04:40.312Z,32.00
2018-10-11T01:07:09.306Z,33.27
2018-10-11T01:09:37.893Z,34.63
2018-10-11T01:12:06.614Z,33.23
2018-10-11T01:14:35.256Z,34.13
2018-10-11T01:17:03.986Z,32.57
2018-10-11T01:19:32.483Z,34.40
2018-10-11T01:22:01.323Z,30.67
2018-10-11T01:24:29.911Z,31.67
2018-10-11T01:26:58.612Z,32.37
2018-10-11T01:29:27.373Z,33.20
2018-10-11T01:31:56.364Z,33.07
2018-10-11T01:34:24.838Z,32.70
2018-10-11T01:36:53.492Z,34.57
2018-10-11T01:39:22.433Z,31.97
2018-10-11T01:41:50.834Z,37.00
2018-10-11T01:44:19.443Z,36.17
2018-10-11T01:46:48.384Z,32.23
2018-10-11T01:49:16.865Z,32.40
2018-10-11T01:51:45.559Z,32.20
2018-10-11T01:54:14.255Z,33.80
2018-10-11T01:56:42.840Z,31.43
2018-10-11T01:59:11.346Z,34.87
2018-10-11T02:01:40.386Z,33.13
2018-10-11T02:04:09.299Z,35.40
2018-10-11T02:06:37.890Z,32.73
2018-10-11T02:09:06.755Z,31.97
2018-10-11T02:11:35.439Z,35.00
2018-10-11T02:14:03.910Z,33.03
2018-10-11T02:16:32.536Z,31.17
2018-10-11T02:19:01.014Z,35.93
2018-10-11T02:21:29.631Z,32.10
2018-10-11T02:23:58.379Z,32.07
2018-10-11T02:26:27.064Z,35.10
2018-10-11T02:28:55.938Z,32.33
2018-10-11T02:31:24.999Z,35.53
2018-10-11T02:33:53.680Z,35.33
2018-10-11T02:36:22.912Z,34.60
2018-10-11T02:38:51.620Z,35.17
2018-10-11T02:41:25.431Z,35.93
2018-10-11T02:43:54.733Z,35.53
2018-10-11T02:46:23.391Z,37.10
2018-10-11T02:48:52.095Z,34.43
2018-10-11T02:51:20.614Z,34.10
2018-10-11T02:53:49.010Z,36.20
2018-10-11T02:56:19.596Z,34.97
2018-10-11T02:58:59.839Z,35.63
2018-10-11T03:01:29.260Z,39.73
2018-10-11T03:04:01.604Z,35.73
2018-10-11T03:06:32.426Z,40.40
2018-10-11T03:09:00.929Z,36.80
2018-10-11T03:11:29.556Z,39.73
2018-10-11T03:13:58.064Z,36.90
2018-10-11T03:16:26.432Z,36.83
2018-10-11T03:18:55.700Z,38.23
2018-10-11T03:21:24.264Z,46.07
2018-10-11T03:23:52.743Z,37.47
2018-10-11T03:26:21.665Z,41.57
2018-10-11T03:28:50.307Z,37.83
2018-10-11T03:31:19.118Z,35.57
2018-10-11T03:33:47.731Z,32.87
2018-10-11T03:36:16.424Z,38.90
2018-10-11T03:38:45.290Z,39.93
2018-10-11T03:41:13.924Z,39.00
2018-10-11T03:43:44.228Z,40.17
2018-10-11T03:46:13.093Z,40.17
2018-10-11T03:48:41.787Z,36.50
2018-10-11T03:51:15.781Z,36.73
2018-10-11T03:53:44.486Z,38.23
2018-10-11T03:56:13.140Z,37.97
2018-10-11T03:58:41.749Z,42.23
2018-10-11T04:01:10.561Z,33.40
2018-10-11T04:03:39.259Z,35.93
2018-10-11T04:06:07.952Z,38.67
2018-10-11T04:08:37.197Z,38.50
2018-10-11T04:11:06.116Z,35.70
2018-10-11T04:13:34.804Z,37.83
2018-10-11T04:16:03.518Z,36.63
2018-10-11T04:18:32.199Z,34.60
2018-10-11T04:21:00.946Z,38.50
2018-10-11T04:23:30.612Z,36.37
2018-10-11T04:25:59.864Z,38.33
2018-10-11T04:28:29.362Z,38.50
2018-10-11T04:30:59.076Z,36.57
2018-10-11T04:33:28.782Z,36.27
2018-10-11T04:35:59.169Z,34.80
2018-10-11T04:38:28.360Z,35.77
2018-10-11T04:40:57.186Z,37.57
2018-10-11T04:43:25.795Z,35.63
2018-10-11T04:45:54.755Z,38.10
2018-10-11T04:48:23.449Z,38.07
2018-10-11T04:50:52.169Z,37.30
2018-10-11T04:53:20.690Z,35.17
2018-10-11T04:55:49.079Z,39.63
2018-10-11T04:58:17.991Z,34.27
2018-10-11T05:00:46.696Z,39.70
2018-10-11T05:03:15.392Z,38.97
2018-10-11T05:05:43.888Z,33.57
2018-10-11T05:08:12.892Z,35.13
2018-10-11T05:10:41.478Z,34.77
2018-10-11T05:13:10.221Z,36.63
2018-10-11T05:15:39.190Z,36.27
2018-10-11T05:18:07.902Z,38.77
2018-10-11T05:20:36.779Z,34.33
2018-10-11T05:23:05.972Z,33.53
2018-10-11T05:25:34.484Z,36.00
2018-10-11T05:28:03.276Z,35.77
2018-10-11T05:30:31.849Z,32.97
2018-10-11T05:33:00.363Z,30.33
2018-10-11T05:35:29.116Z,35.87
2018-10-11T05:37:57.839Z,35.67
2018-10-11T05:40:26.417Z,37.53
2018-10-11T05:42:54.990Z,33.80
2018-10-11T05:45:24.155Z,34.97
2018-10-11T05:47:52.995Z,35.17
2018-10-11T05:50:21.729Z,34.70
2018-10-11T05:52:50.488Z,32.93
2018-10-11T05:55:19.228Z,35.33
2018-10-11T05:57:48.472Z,35.47
2018-10-11T06:00:16.980Z,29.57
2018-10-11T06:02:58.052Z,34.97
2018-10-11T06:05:27.383Z,34.23
2018-10-11T06:07:56.572Z,32.43
2018-10-11T06:10:25.483Z,32.63
2018-10-11T06:12:54.228Z,35.13
2018-10-11T06:15:23.144Z,31.00
2018-10-11T06:17:51.830Z,33.87
2018-10-11T06:20:20.252Z,35.63
2018-10-11T06:22:49.110Z,34.27
2018-10-11T06:25:17.447Z,30.43
2018-10-11T06:27:46.111Z,33.00
2018-10-11T06:30:14.982Z,36.50
2018-10-11T06:32:44.924Z,32.93
2018-10-11T06:35:14.589Z,35.57
2018-10-11T06:37:43.427Z,34.23
2018-10-11T06:40:12.792Z,32.23
2018-10-11T06:42:41.425Z,32.33
2018-10-11T06:45:10.675Z,34.90
2018-10-11T06:47:39.870Z,34.43
2018-10-11T06:50:08.557Z,34.13
2018-10-11T06:52:36.867Z,38.37
2018-10-11T06:55:06.028Z,34.47
2018-10-11T06:57:35.111Z,36.57
2018-10-11T07:00:04.409Z,36.90
2018-10-11T07:02:32.892Z,35.37
2018-10-11T07:05:01.526Z,33.47
2018-10-11T07:07:30.207Z,34.70
2018-10-11T07:09:58.964Z,35.33
2018-10-11T07:12:27.378Z,36.87
2018-10-11T07:14:56.956Z,37.57
2018-10-11T07:17:25.947Z,34.10
2018-10-11T07:19:54.946Z,31.03
2018-10-11T07:22:23.340Z,33.87
2018-10-11T07:24:51.939Z,33.00
2018-10-11T07:27:20.906Z,31.90
2018-10-11T07:29:49.819Z,32.40
2018-10-11T07:32:18.578Z,32.70
2018-10-11T07:34:47.214Z,34.70
2018-10-11T07:37:15.938Z,33.17
2018-10-11T07:39:44.416Z,29.53
2018-10-11T07:42:13.156Z,34.37
2018-10-11T07:44:41.558Z,171.77
2018-10-11T07:47:10.236Z,32.20
2018-10-11T07:49:39.070Z,32.77
2018-10-11T07:52:08.257Z,30.60
2018-10-11T07:54:36.733Z,28.67
2018-10-11T07:57:05.469Z,28.77
2018-10-11T07:59:34.100Z,30.10
2018-10-11T08:02:03.020Z,29.87
2018-10-11T08:04:31.605Z,33.83
2018-10-11T08:07:00.098Z,27.20
2018-10-11T08:09:28.567Z,25.90
2018-10-11T08:11:57.447Z,32.73
2018-10-11T08:14:25.699Z,29.57
2018-10-11T08:19:28.252Z,24.73
2018-10-11T08:21:57.018Z,25.80
2018-10-11T08:24:26.395Z,27.10
2018-10-11T08:26:54.851Z,25.23
2018-10-11T08:29:23.175Z,26.30
2018-10-11T08:31:52.072Z,29.83
2018-10-11T08:34:20.788Z,30.97
2018-10-11T08:36:49.482Z,24.80
2018-10-11T08:39:18.181Z,22.87
2018-10-11T08:41:46.836Z,27.47
2018-10-11T08:44:15.556Z,26.20
2018-10-11T08:46:44.207Z,25.30
2018-10-11T08:49:12.995Z,22.50
2018-10-11T08:51:41.663Z,26.70
2018-10-11T08:54:15.669Z,26.43
2018-10-11T08:56:44.070Z,23.57
2018-10-11T08:59:12.720Z,24.17
2018-10-11T09:01:41.550Z,22.33
2018-10-11T09:04:09.965Z,27.20
2018-10-11T09:06:38.332Z,25.43
2018-10-11T09:09:08.027Z,19.77
2018-10-11T09:11:36.566Z,18.37
2018-10-11T09:14:05.885Z,19.83
2018-10-11T09:16:34.927Z,20.80
2018-10-11T09:19:03.422Z,19.80
2018-10-11T09:21:32.404Z,20.77
2018-10-11T09:24:01.272Z,18.75
2018-10-11T09:26:29.867Z,19.87
2018-10-11T09:28:58.565Z,18.67
2018-10-11T09:31:27.133Z,18.67
2018-10-11T09:33:55.745Z,18.77
2018-10-11T09:36:24.481Z,20.15
2018-10-11T09:38:53.016Z,17.60
2018-10-11T09:41:21.422Z,17.45
2018-10-11T09:43:49.809Z,20.65
2018-10-11T09:46:18.210Z,20.32
2018-10-11T09:48:46.891Z,17.70
2018-10-11T09:51:15.532Z,19.60
2018-10-11T09:53:44.246Z,17.17
2018-10-11T09:56:12.953Z,17.95
2018-10-11T09:58:41.424Z,17.67
2018-10-11T10:01:15.502Z,16.20
2018-10-11T10:03:44.214Z,18.12
2018-10-11T10:06:12.902Z,18.02
2018-10-11T10:08:41.736Z,17.55
2018-10-11T10:11:10.380Z,23.80
2018-10-11T10:13:39.072Z,18.30
2018-10-11T10:16:07.580Z,21.02
2018-10-11T10:18:36.190Z,16.15
2018-10-11T10:21:04.964Z,17.23
2018-10-11T10:23:33.641Z,20.20
2018-10-11T10:26:02.335Z,16.70
2018-10-11T10:28:30.806Z,16.55
2018-10-11T10:30:59.303Z,19.15
2018-10-11T10:33:27.699Z,17.82
2018-10-11T10:35:56.301Z,18.73
2018-10-11T10:38:25.044Z,15.58
2018-10-11T10:40:53.615Z,20.08
2018-10-11T10:43:22.232Z,17.35
2018-10-11T10:45:50.940Z,18.23
2018-10-11T10:48:19.431Z,17.45
2018-10-11T10:50:48.040Z,15.98
2018-10-11T10:53:16.755Z,17.92
2018-10-11T10:55:45.460Z,51.77
2018-10-11T10:58:14.160Z,19.30
2018-10-11T11:00:42.656Z,15.15
2018-10-11T11:03:11.267Z,17.12
2018-10-11T11:05:39.760Z,16.12
2018-10-11T11:08:08.164Z,14.83
2018-10-11T11:10:36.767Z,16.23
2018-10-11T11:13:05.521Z,17.62
2018-10-11T11:15:34.216Z,18.20
2018-10-11T11:18:02.712Z,15.50
2018-10-11T11:20:31.351Z,15.30
2018-10-11T11:23:00.151Z,14.93
2018-10-11T11:25:28.844Z,17.32
2018-10-11T11:27:57.546Z,16.82
2018-10-11T11:30:26.260Z,16.93
2018-10-11T11:32:55.090Z,18.90
2018-10-11T11:35:23.520Z,16.67
2018-10-11T11:37:52.144Z,19.17
2018-10-11T11:40:20.668Z,14.90
2018-10-11T11:42:49.034Z,15.78
2018-10-11T11:45:17.445Z,16.50
2018-10-11T11:47:46.060Z,16.62
2018-10-11T11:50:14.778Z,18.92
2018-10-11T11:52:43.311Z,15.40
2018-10-11T11:55:11.924Z,19.55
2018-10-11T11:57:40.617Z,21.45
2018-10-11T12:00:09.103Z,15.83
2018-10-11T12:02:37.785Z,15.95
2018-10-11T12:05:06.457Z,17.90
2018-10-11T12:07:35.151Z,14.65
2018-10-11T12:10:03.652Z,18.85
2018-10-11T12:13:08.703Z,14.95
2018-10-11T12:15:38.058Z,16.10
2018-10-11T12:18:07.138Z,16.62
2018-10-11T12:20:36.943Z,13.93
2018-10-11T12:23:06.738Z,15.48
2018-10-11T12:25:35.557Z,18.52
2018-10-11T12:28:03.968Z,15.90
2018-10-11T12:30:32.580Z,15.45
2018-10-11T12:33:01.071Z,14.25
2018-10-11T12:35:30.084Z,14.93
2018-10-11T12:37:58.571Z,19.95
2018-10-11T12:40:26.951Z,17.55
2018-10-11T12:42:55.420Z,17.75
2018-10-11T12:45:23.873Z,16.00
2018-10-11T12:47:52.220Z,16.33
2018-10-11T12:50:20.631Z,16.40
2018-10-11T12:52:49.132Z,18.57
2018-10-11T12:55:17.736Z,18.23
2018-10-11T12:57:46.447Z,16.07
2018-10-11T13:00:16.220Z,16.80
2018-10-11T13:02:45.048Z,18.70
2018-10-11T13:05:13.699Z,15.60
2018-10-11T13:07:42.790Z,19.17
2018-10-11T13:10:11.269Z,18.40
2018-10-11T13:12:39.743Z,16.03
2018-10-11T13:15:08.505Z,15.13
2018-10-11T13:17:41.819Z,14.67
2018-10-11T13:20:05.577Z,14.87
2018-10-11T13:22:34.199Z,18.87
2018-10-11T13:25:02.940Z,17.33
2018-10-11T13:27:31.434Z,16.67
2018-10-11T13:29:59.838Z,13.87
2018-10-11T13:32:28.428Z,14.30
2018-10-11T13:34:56.957Z,16.40
2018-10-11T13:37:25.315Z,18.57
2018-10-11T13:39:56.992Z,13.90
2018-10-11T13:42:22.617Z,14.70
2018-10-11T13:44:51.083Z,18.60
2018-10-11T13:47:19.515Z,13.80
2018-10-11T13:49:48.112Z,16.07
2018-10-11T13:52:22.571Z,13.70
2018-10-11T13:54:50.583Z,15.67
2018-10-11T13:57:22.783Z,14.57
2018-10-11T13:59:47.681Z,13.13
2018-10-11T14:02:16.571Z,14.10
2018-10-11T14:04:45.056Z,16.97
2018-10-11T14:07:13.434Z,13.70
2018-10-11T14:09:42.095Z,14.07
2018-10-11T14:12:15.880Z,15.03
2018-10-11T14:14:44.364Z,14.10
2018-10-11T14:17:12.964Z,17.47
2018-10-11T14:19:41.465Z,15.93
2018-10-11T14:22:09.934Z,15.90
2018-10-11T14:24:38.540Z,14.50
2018-10-11T14:27:07.019Z,14.53
2018-10-11T14:29:35.427Z,20.53
2018-10-11T14:32:04.140Z,15.30
2018-10-11T14:34:32.823Z,16.17
2018-10-11T14:37:01.522Z,15.17
2018-10-11T14:39:29.924Z,15.57
2018-10-11T14:41:58.682Z,14.80
2018-10-11T14:44:27.227Z,13.87
2018-10-11T14:46:55.953Z,17.80
2018-10-11T14:49:24.402Z,13.70
2018-10-11T14:51:52.840Z,18.23
2018-10-11T14:54:21.221Z,12.87
2018-10-11T14:56:49.840Z,14.37
2018-10-11T14:59:18.548Z,14.47
2018-10-11T15:01:47.023Z,16.60
2018-10-11T15:04:15.417Z,16.23
2018-10-11T15:06:44.332Z,15.63
2018-10-11T15:09:13.027Z,16.60
2018-10-11T15:11:41.680Z,18.80
2018-10-11T15:14:10.223Z,18.47
2018-10-11T15:16:38.928Z,18.10
2018-10-11T15:19:07.407Z,16.77
2018-10-11T15:21:35.819Z,20.30
2018-10-11T15:24:04.216Z,15.97
2018-10-11T15:26:32.830Z,13.60
2018-10-11T15:29:01.323Z,13.57
2018-10-11T15:31:29.773Z,13.97
2018-10-11T15:33:58.452Z,14.20
2018-10-11T15:36:27.169Z,13.67
2018-10-11T15:38:55.880Z,15.77
2018-10-11T15:41:24.422Z,13.97
2018-10-11T15:43:53.038Z,14.83
2018-10-11T15:46:21.527Z,16.30
2018-10-11T15:48:50.248Z,13.93
2018-10-11T15:51:19.032Z,15.10
2018-10-11T15:53:47.509Z,13.83
2018-10-11T15:56:16.156Z,15.53
2018-10-11T15:58:44.642Z,13.03
2018-10-11T16:01:13.245Z,17.70
2018-10-11T16:03:41.727Z,14.30
2018-10-11T16:06:10.148Z,13.37
2018-10-11T16:08:38.756Z,15.20
2018-10-11T16:11:07.315Z,15.57
2018-10-11T16:13:35.948Z,15.63
2018-10-11T16:16:04.478Z,12.67
2018-10-11T16:18:33.070Z,14.93
2018-10-11T16:21:01.856Z,16.20
2018-10-11T16:23:30.543Z,14.17
2018-10-11T16:25:59.035Z,13.30
2018-10-11T16:28:27.463Z,23.50
2018-10-11T16:30:56.168Z,15.00
2018-10-11T16:33:24.654Z,16.00
2018-10-11T16:35:53.354Z,14.73
2018-10-11T16:38:22.049Z,16.60
2018-10-11T16:40:50.552Z,13.80
2018-10-11T16:43:19.147Z,17.77
2018-10-11T16:45:47.623Z,14.63
2018-10-11T16:48:16.005Z,14.33
2018-10-11T16:50:44.419Z,15.90
2018-10-11T16:53:13.031Z,14.67
2018-10-11T16:55:41.514Z,13.13
2018-10-11T16:58:10.206Z,15.57
2018-10-11T17:00:38.870Z,17.37
2018-10-11T17:03:07.362Z,13.47
2018-10-11T17:05:35.983Z,15.70
2018-10-11T17:08:04.459Z,14.03
2018-10-11T17:10:33.051Z,13.27
2018-10-11T17:13:01.551Z,14.93
2018-10-11T17:15:29.961Z,14.10
2018-10-11T17:17:58.563Z,17.27
2018-10-11T17:20:27.066Z,16.00
2018-10-11T17:22:55.539Z,20.33
2018-10-11T17:25:23.926Z,20.77
2018-10-11T17:27:52.564Z,25.80
2018-10-11T17:30:21.054Z,32.67
2018-10-11T17:32:49.515Z,29.30
2018-10-11T17:35:18.227Z,21.27
2018-10-11T17:37:46.831Z,24.97
2018-10-11T17:40:15.311Z,19.33
2018-10-11T17:42:44.176Z,15.77
2018-10-11T17:45:12.790Z,17.80
2018-10-11T17:47:41.288Z,22.07
2018-10-11T17:50:09.717Z,20.23
2018-10-11T17:52:38.304Z,14.70
2018-10-11T17:55:07.004Z,19.57
2018-10-11T17:57:35.522Z,15.60
2018-10-11T18:00:03.924Z,17.97
2018-10-11T18:02:32.522Z,15.17
2018-10-11T18:05:01.560Z,17.77
2018-10-11T18:07:30.251Z,15.17
2018-10-11T18:09:58.977Z,18.23
2018-10-11T18:12:27.453Z,15.43
2018-10-11T18:14:55.844Z,16.70
2018-10-11T18:17:25.067Z,14.93
2018-10-11T18:19:53.464Z,16.57
2018-10-11T18:22:22.152Z,15.47
2018-10-11T18:24:50.646Z,14.13
2018-10-11T18:27:19.524Z,18.40
2018-10-11T18:29:48.224Z,17.03
2018-10-11T18:32:17.066Z,21.33
2018-10-11T18:34:45.573Z,18.83
2018-10-11T18:37:14.194Z,17.83
2018-10-11T18:39:42.898Z,18.17
2018-10-11T18:42:11.475Z,14.43
2018-10-11T18:44:39.922Z,16.83
2018-10-11T18:47:08.492Z,16.67
2018-10-11T18:49:37.206Z,17.40
2018-10-11T18:52:05.803Z,22.23
2018-10-11T18:54:34.413Z,16.87
2018-10-11T18:57:03.148Z,15.70
2018-10-11T18:59:31.632Z,16.70
2018-10-11T19:02:00.015Z,17.97
2018-10-11T19:04:28.418Z,17.07
2018-10-11T19:06:56.808Z,15.33
2018-10-11T19:09:25.199Z,18.07
2018-10-11T19:11:53.614Z,14.43
2018-10-11T19:14:22.219Z,18.80
2018-10-11T19:16:50.920Z,17.13
2018-10-11T19:19:19.431Z,18.03
2018-10-11T19:21:58.100Z,16.30
2018-10-11T19:24:26.604Z,19.27
2018-10-11T19:26:55.216Z,17.10
2018-10-11T19:29:23.922Z,17.77
2018-10-11T19:31:52.639Z,20.80
2018-10-11T19:34:21.146Z,19.87
2018-10-11T19:36:49.539Z,17.40
2018-10-11T19:39:18.201Z,19.00
2018-10-11T19:41:46.691Z,19.73
2018-10-11T19:44:15.084Z,18.53
2018-10-11T19:46:43.500Z,17.90
2018-10-11T19:49:12.099Z,16.83
2018-10-11T19:51:40.820Z,17.60
2018-10-11T19:54:09.331Z,16.07
2018-10-11T19:56:38.137Z,19.53
2018-10-11T19:59:06.539Z,18.00
2018-10-11T20:01:35.260Z,19.77
2018-10-11T20:04:03.963Z,16.93
2018-10-11T20:06:32.446Z,16.17
2018-10-11T20:09:01.055Z,17.67
2018-10-11T20:11:29.604Z,17.93
2018-10-11T20:13:58.211Z,17.50
2018-10-11T20:16:26.921Z,17.63
2018-10-11T20:18:55.402Z,16.57
2018-10-11T20:21:24.032Z,19.77
2018-10-11T20:23:52.732Z,19.00
2018-10-11T20:26:21.214Z,19.40
2018-10-11T20:28:49.607Z,21.20
2018-10-11T20:31:18.241Z,15.90
2018-10-11T20:33:46.943Z,15.97
2018-10-11T20:36:15.886Z,16.70
2018-10-11T20:38:44.614Z,22.13
2018-10-11T20:41:13.316Z,15.67
2018-10-11T20:43:41.929Z,17.67
2018-10-11T20:46:10.419Z,19.93
2018-10-11T20:48:39.044Z,19.67
2018-10-11T20:51:07.615Z,17.93
2018-10-11T20:53:36.626Z,17.53
2018-10-11T20:56:05.167Z,17.40
2018-10-11T20:58:33.626Z,20.43
2018-10-11T21:01:02.304Z,21.77
2018-10-11T21:03:31.003Z,19.37
2018-10-11T21:05:59.529Z,17.37
2018-10-11T21:08:28.139Z,17.53
2018-10-11T21:10:56.927Z,19.90
2018-10-11T21:13:26.110Z,19.47
2018-10-11T21:15:54.747Z,16.17
2018-10-11T21:18:23.240Z,19.63
2018-10-11T21:20:51.651Z,18.73
2018-10-11T21:23:20.070Z,18.10
2018-10-11T21:25:48.672Z,21.60
2018-10-11T21:28:17.282Z,18.87
2018-10-11T21:30:45.596Z,19.80
2018-10-11T21:33:14.298Z,18.67
2018-10-11T21:35:42.992Z,17.57
2018-10-11T21:38:11.493Z,19.13
2018-10-11T21:40:40.091Z,19.77
2018-10-11T21:43:08.783Z,21.17
2018-10-11T21:45:37.278Z,16.60
2018-10-11T21:48:05.762Z,17.73
2018-10-11T21:50:34.299Z,17.33
2018-10-11T21:53:12.803Z,24.57
2018-10-11T21:55:41.428Z,22.17
2018-10-11T21:58:09.943Z,21.27
2018-10-11T22:00:43.895Z,20.53
2018-10-11T22:03:12.611Z,19.13
2018-10-11T22:05:41.303Z,21.53
2018-10-11T22:08:10.228Z,18.80
2018-10-11T22:10:39.185Z,24.27
2018-10-11T22:13:07.675Z,17.60
2018-10-11T22:15:36.312Z,18.17
2018-10-11T22:18:04.799Z,20.80
2018-10-11T22:20:33.188Z,21.67
2018-10-11T22:23:01.626Z,22.97
2018-10-11T22:25:30.459Z,24.23
2018-10-11T22:27:59.178Z,20.13
2018-10-11T22:30:27.639Z,18.57
2018-10-11T22:32:56.099Z,20.13
2018-10-11T22:35:25.307Z,19.70
2018-10-11T22:37:55.552Z,19.73
2018-10-11T22:40:24.211Z,21.77
2018-10-11T22:42:53.099Z,19.40
2018-10-11T22:45:21.595Z,25.03
2018-10-11T22:47:50.008Z,26.37
2018-10-11T22:50:18.642Z,27.63
2018-10-11T22:52:47.415Z,24.53
2018-10-11T22:55:16.123Z,23.77
2018-10-11T22:57:44.607Z,25.23
2018-10-11T23:00:13.230Z,20.17
2018-10-11T23:02:41.727Z,24.57
2018-10-11T23:05:10.327Z,24.10
2018-10-11T23:07:39.032Z,20.87
2018-10-11T23:10:07.519Z,22.13
2018-10-11T23:12:36.136Z,27.70
2018-10-11T23:15:05.130Z,26.53
2018-10-11T23:17:34.353Z,19.80
2018-10-11T23:20:02.752Z,23.67
2018-10-11T23:22:31.384Z,23.87
2018-10-11T23:24:59.874Z,20.63
2018-10-11T23:27:28.504Z,19.97
2018-10-11T23:29:57.306Z,20.17
2018-10-11T23:32:25.874Z,25.30
2018-10-11T23:34:54.491Z,18.87
2018-10-11T23:37:22.986Z,22.97
2018-10-11T23:39:51.371Z,21.33
2018-10-11T23:42:19.828Z,23.87
2018-10-11T23:44:48.440Z,22.67
2018-10-11T23:47:17.143Z,22.00
2018-10-11T23:49:45.632Z,21.83
2018-10-11T23:52:14.364Z,19.87
2018-10-11T23:54:42.846Z,22.23
2018-10-11T23:57:11.559Z,21.57
2018-10-11T23:59:40.272Z,21.80
